createdAt,value
2018-05-14T00:00:38.152Z,17.60
2018-05-14T00:03:06.459Z,17.60
2018-05-14T00:05:33.896Z,17.60
2018-05-14T00:08:01.333Z,17.70
2018-05-14T00:10:29.541Z,17.60
2018-05-14T00:12:56.977Z,17.50
2018-05-14T00:15:24.462Z,17.60
2018-05-14T00:17:51.881Z,17.60
2018-05-14T00:20:20.090Z,17.50
2018-05-14T00:22:47.552Z,17.40
2018-05-14T00:25:14.982Z,17.50
2018-05-14T00:27:42.414Z,17.50
2018-05-14T00:30:09.941Z,17.50
2018-05-14T00:32:37.383Z,17.50
2018-05-14T00:35:04.824Z,17.50
2018-05-14T00:37:32.244Z,17.40
2018-05-14T00:39:59.669Z,17.40
2018-05-14T00:42:27.119Z,17.40
2018-05-14T00:44:54.549Z,17.40
2018-05-14T00:47:22.002Z,17.40
2018-05-14T00:49:49.425Z,17.40
2018-05-14T00:52:17.649Z,17.30
2018-05-14T00:54:56.888Z,17.30
2018-05-14T00:57:24.348Z,17.20
2018-05-14T00:59:51.785Z,17.20
2018-05-14T01:02:19.263Z,17.20
2018-05-14T01:04:46.698Z,17.20
2018-05-14T01:07:14.128Z,17.10
2018-05-14T01:09:41.569Z,17.00
2018-05-14T01:12:09.884Z,17.10
2018-05-14T01:14:37.297Z,17.00
2018-05-14T01:17:05.612Z,16.90
2018-05-14T01:19:33.029Z,16.90
2018-05-14T01:22:01.255Z,16.80
2018-05-14T01:24:28.712Z,16.80
2018-05-14T01:26:56.153Z,16.80
2018-05-14T01:29:23.590Z,16.70
2018-05-14T01:31:51.063Z,16.70
2018-05-14T01:34:18.543Z,16.70
2018-05-14T01:36:46.002Z,16.70
2018-05-14T01:39:13.437Z,16.70
2018-05-14T01:41:40.888Z,16.70
2018-05-14T01:44:08.374Z,16.70
2018-05-14T01:46:35.829Z,16.60
2018-05-14T01:49:03.248Z,16.60
2018-05-14T01:51:30.752Z,16.60
2018-05-14T01:53:58.171Z,16.60
2018-05-14T01:56:25.658Z,16.60
2018-05-14T01:58:53.120Z,16.60
2018-05-14T02:01:20.633Z,16.60
2018-05-14T02:03:48.125Z,16.60
2018-05-14T02:06:15.583Z,16.60
2018-05-14T02:08:43.041Z,16.60
2018-05-14T02:11:10.466Z,16.50
2018-05-14T02:13:37.909Z,16.50
2018-05-14T02:16:05.340Z,16.40
2018-05-14T02:18:33.585Z,16.40
2018-05-14T02:21:01.004Z,16.40
2018-05-14T02:23:28.571Z,16.40
2018-05-14T02:25:56.005Z,16.40
2018-05-14T02:28:23.440Z,16.40
2018-05-14T02:30:51.645Z,16.40
2018-05-14T02:33:19.113Z,16.40
2018-05-14T02:35:46.536Z,16.40
2018-05-14T02:38:14.764Z,16.20
2018-05-14T02:40:42.220Z,16.20
2018-05-14T02:43:09.653Z,16.20
2018-05-14T02:45:37.092Z,16.20
2018-05-14T02:48:04.526Z,16.20
2018-05-14T02:50:32.725Z,16.20
2018-05-14T02:53:00.195Z,16.10
2018-05-14T02:55:27.616Z,16.20
2018-05-14T02:57:55.812Z,16.10
2018-05-14T03:00:23.250Z,16.00
2018-05-14T03:02:51.457Z,16.10
2018-05-14T03:05:18.881Z,16.00
2018-05-14T03:07:46.325Z,16.00
2018-05-14T03:10:13.849Z,16.00
2018-05-14T03:12:41.292Z,16.00
2018-05-14T03:15:08.730Z,17.40
2018-05-14T03:17:36.191Z,15.90
2018-05-14T03:20:03.612Z,15.90
2018-05-14T03:22:31.872Z,15.90
2018-05-14T03:24:59.381Z,15.80
2018-05-14T03:27:26.810Z,15.90
2018-05-14T03:29:55.056Z,15.90
2018-05-14T03:32:22.469Z,15.90
2018-05-14T03:34:49.953Z,15.90
2018-05-14T03:37:17.396Z,15.90
2018-05-14T03:39:44.889Z,16.00
2018-05-14T03:42:12.333Z,16.00
2018-05-14T03:44:39.752Z,16.00
2018-05-14T03:47:07.198Z,16.00
2018-05-14T03:49:34.633Z,15.90
2018-05-14T03:52:02.833Z,16.00
2018-05-14T03:54:30.322Z,15.90
2018-05-14T03:56:57.756Z,15.90
2018-05-14T03:59:36.995Z,15.90
2018-05-14T04:02:25.377Z,15.90
2018-05-14T04:05:04.693Z,15.80
2018-05-14T04:07:32.225Z,15.80
2018-05-14T04:09:59.700Z,15.90
2018-05-14T04:12:27.144Z,15.90
2018-05-14T04:14:54.591Z,16.00
2018-05-14T04:17:22.012Z,16.00
2018-05-14T04:19:50.215Z,16.20
2018-05-14T04:22:17.645Z,16.10
2018-05-14T04:24:45.849Z,16.20
2018-05-14T04:27:13.271Z,16.10
2018-05-14T04:29:40.725Z,16.30
2018-05-14T04:32:08.915Z,16.30
2018-05-14T04:34:36.417Z,16.30
2018-05-14T04:37:03.850Z,16.40
2018-05-14T04:39:31.426Z,16.50
2018-05-14T04:41:58.862Z,16.50
2018-05-14T04:44:26.290Z,16.60
2018-05-14T04:46:54.591Z,16.70
2018-05-14T04:49:22.022Z,16.60
2018-05-14T04:51:50.617Z,16.80
2018-05-14T04:54:18.078Z,16.70
2018-05-14T04:56:45.542Z,16.90
2018-05-14T04:59:13.086Z,17.00
2018-05-14T05:01:40.489Z,17.00
2018-05-14T05:04:07.915Z,17.00
2018-05-14T05:06:35.344Z,17.10
2018-05-14T05:09:02.792Z,17.10
2018-05-14T05:11:31.049Z,17.30
2018-05-14T05:13:58.445Z,17.20
2018-05-14T05:16:25.894Z,17.30
2018-05-14T05:18:53.382Z,17.40
2018-05-14T05:21:20.816Z,17.40
2018-05-14T05:23:48.278Z,17.40
2018-05-14T05:26:15.714Z,17.50
2018-05-14T05:28:43.923Z,17.60
2018-05-14T05:31:11.365Z,17.60
2018-05-14T05:33:38.806Z,17.80
2018-05-14T05:36:06.248Z,17.90
2018-05-14T05:38:34.555Z,18.00
2018-05-14T05:41:01.998Z,18.00
2018-05-14T05:43:29.465Z,18.10
2018-05-14T05:45:56.940Z,18.10
2018-05-14T05:48:24.404Z,18.20
2018-05-14T05:50:51.849Z,18.30
2018-05-14T05:53:19.290Z,18.40
2018-05-14T05:55:46.737Z,18.40
2018-05-14T05:58:14.184Z,18.50
2018-05-14T06:00:41.626Z,18.50
2018-05-14T06:03:09.915Z,18.70
2018-05-14T06:05:37.495Z,18.60
2018-05-14T06:08:04.963Z,18.70
2018-05-14T06:10:32.386Z,18.80
2018-05-14T06:12:59.837Z,18.90
2018-05-14T06:15:28.041Z,19.00
2018-05-14T06:17:55.491Z,19.00
2018-05-14T06:20:22.926Z,19.20
2018-05-14T06:22:50.348Z,19.30
2018-05-14T06:25:17.798Z,19.30
2018-05-14T06:27:45.314Z,19.30
2018-05-14T06:30:12.708Z,19.40
2018-05-14T06:32:40.145Z,19.60
2018-05-14T06:35:07.622Z,19.70
2018-05-14T06:37:35.061Z,19.80
2018-05-14T06:40:02.614Z,19.90
2018-05-14T06:42:30.100Z,20.00
2018-05-14T06:44:57.560Z,20.00
2018-05-14T06:47:25.011Z,20.00
2018-05-14T06:49:52.581Z,20.10
2018-05-14T06:52:20.018Z,20.10
2018-05-14T06:54:47.554Z,20.20
2018-05-14T06:57:15.015Z,20.30
2018-05-14T06:59:42.431Z,20.50
2018-05-14T07:02:10.639Z,20.60
2018-05-14T07:04:38.144Z,20.50
2018-05-14T07:07:05.581Z,20.60
2018-05-14T07:09:33.041Z,20.60
2018-05-14T07:12:00.480Z,20.70
2018-05-14T07:14:27.941Z,20.80
2018-05-14T07:16:55.479Z,20.90
2018-05-14T07:19:23.067Z,20.90
2018-05-14T07:21:50.780Z,20.90
2018-05-14T07:24:19.002Z,21.10
2018-05-14T07:26:46.445Z,21.00
2018-05-14T07:29:13.912Z,21.20
2018-05-14T07:31:41.350Z,21.30
2018-05-14T07:34:08.951Z,21.30
2018-05-14T07:36:36.471Z,21.40
2018-05-14T07:39:03.893Z,21.50
2018-05-14T07:41:32.119Z,21.70
2018-05-14T07:43:59.658Z,21.60
2018-05-14T07:46:27.218Z,21.70
2018-05-14T07:48:54.648Z,21.80
2018-05-14T07:51:22.226Z,22.00
2018-05-14T07:53:49.970Z,22.00
2018-05-14T07:56:17.164Z,22.20
2018-05-14T07:58:44.629Z,22.20
2018-05-14T08:01:12.136Z,22.30
2018-05-14T08:03:39.577Z,22.30
2018-05-14T08:06:07.793Z,22.40
2018-05-14T08:08:35.217Z,22.30
2018-05-14T08:11:02.741Z,22.50
2018-05-14T08:13:30.179Z,22.60
2018-05-14T08:15:57.652Z,22.60
2018-05-14T08:18:25.168Z,22.70
2018-05-14T08:20:52.601Z,22.60
2018-05-14T08:23:20.814Z,22.80
2018-05-14T08:25:48.252Z,22.80
2018-05-14T08:28:15.671Z,22.90
2018-05-14T08:30:43.918Z,23.00
2018-05-14T08:33:11.443Z,22.90
2018-05-14T08:35:38.871Z,23.00
2018-05-14T08:38:06.335Z,22.90
2018-05-14T08:40:33.811Z,23.00
2018-05-14T08:43:01.270Z,23.00
2018-05-14T08:45:28.713Z,23.10
2018-05-14T08:47:56.233Z,23.20
2018-05-14T08:50:23.639Z,23.40
2018-05-14T08:52:51.204Z,23.40
2018-05-14T08:55:18.649Z,23.40
2018-05-14T08:57:46.162Z,23.40
2018-05-14T09:00:13.593Z,23.50
2018-05-14T09:02:41.021Z,23.60
2018-05-14T09:05:08.475Z,23.60
2018-05-14T09:07:35.970Z,23.70
2018-05-14T09:10:03.500Z,23.80
2018-05-14T09:12:30.933Z,23.90
2018-05-14T09:14:58.400Z,23.90
2018-05-14T09:17:25.837Z,24.00
2018-05-14T09:19:53.308Z,24.10
2018-05-14T09:22:20.874Z,24.20
2018-05-14T09:24:48.310Z,24.20
2018-05-14T09:27:15.737Z,24.20
2018-05-14T09:29:43.168Z,24.40
2018-05-14T09:32:10.663Z,24.50
2018-05-14T09:34:38.088Z,24.60
2018-05-14T09:37:05.637Z,24.80
2018-05-14T09:39:33.068Z,24.90
2018-05-14T09:42:00.519Z,24.90
2018-05-14T09:44:27.997Z,24.90
2018-05-14T09:46:56.153Z,25.10
2018-05-14T09:49:23.609Z,25.10
2018-05-14T09:51:51.028Z,25.20
2018-05-14T09:54:19.259Z,25.20
2018-05-14T09:56:46.741Z,25.20
2018-05-14T09:59:14.200Z,25.20
2018-05-14T10:01:41.644Z,25.20
2018-05-14T10:04:09.072Z,25.30
2018-05-14T10:06:36.627Z,25.40
2018-05-14T10:09:04.051Z,25.60
2018-05-14T10:11:32.272Z,25.60
2018-05-14T10:13:59.705Z,25.50
2018-05-14T10:16:27.181Z,25.60
2018-05-14T10:18:54.779Z,25.50
2018-05-14T10:21:22.285Z,25.60
2018-05-14T10:23:49.741Z,25.70
2018-05-14T10:26:17.231Z,25.90
2018-05-14T10:28:44.758Z,25.90
2018-05-14T10:31:12.269Z,25.90
2018-05-14T10:33:39.877Z,25.90
2018-05-14T10:36:07.437Z,25.90
2018-05-14T10:38:34.894Z,26.00
2018-05-14T10:41:02.339Z,25.90
2018-05-14T10:43:29.784Z,25.90
2018-05-14T10:45:57.992Z,26.00
2018-05-14T10:48:25.544Z,25.90
2018-05-14T10:50:52.977Z,26.00
2018-05-14T10:53:20.409Z,26.00
2018-05-14T10:55:48.619Z,26.00
2018-05-14T10:58:16.054Z,26.00
2018-05-14T11:00:43.488Z,26.10
2018-05-14T11:03:10.925Z,26.00
2018-05-14T11:05:38.369Z,26.10
2018-05-14T11:08:05.814Z,26.00
2018-05-14T11:10:33.321Z,26.10
2018-05-14T11:13:00.688Z,26.00
2018-05-14T11:15:28.886Z,26.20
2018-05-14T11:17:56.395Z,26.10
2018-05-14T11:20:23.834Z,26.20
2018-05-14T11:22:51.280Z,26.20
2018-05-14T11:25:18.717Z,26.20
2018-05-14T11:27:46.215Z,26.10
2018-05-14T11:30:14.367Z,26.10
2018-05-14T11:32:41.907Z,26.10
2018-05-14T11:35:09.326Z,26.10
2018-05-14T11:37:37.536Z,26.20
2018-05-14T11:40:04.960Z,26.10
2018-05-14T11:42:33.209Z,26.30
2018-05-14T11:45:00.653Z,26.20
2018-05-14T11:47:28.110Z,26.20
2018-05-14T11:49:55.577Z,26.20
2018-05-14T11:52:23.026Z,26.20
2018-05-14T11:54:50.436Z,26.30
2018-05-14T11:57:17.895Z,26.30
2018-05-14T11:59:45.328Z,26.20
2018-05-14T12:02:13.642Z,26.20
2018-05-14T12:04:41.056Z,26.10
2018-05-14T12:07:09.282Z,26.50
2018-05-14T12:09:36.749Z,26.40
2018-05-14T12:12:04.371Z,26.50
2018-05-14T12:14:31.847Z,26.50
2018-05-14T12:16:59.404Z,26.60
2018-05-14T12:19:26.832Z,26.70
2018-05-14T12:21:55.078Z,26.70
2018-05-14T12:24:22.532Z,26.60
2018-05-14T12:26:49.952Z,26.70
2018-05-14T12:29:17.390Z,26.60
2018-05-14T12:31:44.888Z,26.50
2018-05-14T12:34:12.344Z,26.50
2018-05-14T12:36:39.881Z,26.40
2018-05-14T12:39:07.312Z,26.50
2018-05-14T12:41:34.748Z,26.60
2018-05-14T12:44:02.974Z,26.70
2018-05-14T12:46:30.414Z,26.60
2018-05-14T12:48:57.861Z,26.70
2018-05-14T12:51:26.052Z,26.60
2018-05-14T12:53:53.488Z,26.50
2018-05-14T12:56:20.936Z,26.50
2018-05-14T12:58:48.383Z,26.50
2018-05-14T13:01:16.590Z,26.60
2018-05-14T13:03:44.029Z,26.60
2018-05-14T13:06:11.498Z,26.70
2018-05-14T13:08:38.958Z,26.70
2018-05-14T13:11:06.409Z,26.80
2018-05-14T13:13:33.839Z,26.60
2018-05-14T13:16:02.148Z,26.70
2018-05-14T13:18:29.578Z,26.60
2018-05-14T13:20:57.780Z,26.80
2018-05-14T13:23:25.256Z,26.80
2018-05-14T13:25:52.712Z,27.00
2018-05-14T13:28:20.148Z,27.00
2018-05-14T13:30:48.460Z,27.00
2018-05-14T13:33:16.008Z,27.00
2018-05-14T13:35:43.460Z,27.00
2018-05-14T13:38:10.992Z,26.90
2018-05-14T13:40:38.461Z,26.90
2018-05-14T13:43:06.657Z,26.70
2018-05-14T13:45:34.214Z,26.70
2018-05-14T13:48:01.829Z,26.70
2018-05-14T13:50:29.240Z,26.60
2018-05-14T13:52:56.684Z,26.70
2018-05-14T13:55:24.126Z,26.80
2018-05-14T13:57:51.561Z,26.90
2018-05-14T14:00:19.769Z,26.90
2018-05-14T14:02:47.207Z,26.90
2018-05-14T14:05:14.651Z,26.90
2018-05-14T14:07:42.855Z,27.00
2018-05-14T14:10:10.309Z,27.00
2018-05-14T14:12:37.753Z,27.00
2018-05-14T14:15:05.193Z,27.10
2018-05-14T14:17:33.400Z,27.00
2018-05-14T14:20:00.868Z,27.00
2018-05-14T14:22:28.316Z,27.00
2018-05-14T14:24:55.793Z,27.00
2018-05-14T14:27:23.240Z,27.10
2018-05-14T14:29:50.813Z,27.10
2018-05-14T14:32:18.974Z,27.00
2018-05-14T14:34:46.411Z,27.00
2018-05-14T14:37:13.911Z,27.00
2018-05-14T14:39:41.369Z,26.90
2018-05-14T14:42:12.761Z,26.80
2018-05-14T14:44:40.121Z,26.70
2018-05-14T14:47:07.684Z,26.70
2018-05-14T14:49:35.249Z,26.80
2018-05-14T14:52:02.663Z,26.70
2018-05-14T14:54:30.880Z,26.60
2018-05-14T14:56:58.368Z,26.60
2018-05-14T14:59:25.947Z,26.80
2018-05-14T15:01:54.165Z,26.80
2018-05-14T15:04:21.608Z,26.80
2018-05-14T15:06:49.036Z,26.90
2018-05-14T15:09:17.256Z,27.20
2018-05-14T15:11:44.688Z,27.10
2018-05-14T15:14:12.126Z,27.50
2018-05-14T15:16:40.333Z,28.10
2018-05-14T15:19:07.790Z,28.10
2018-05-14T15:21:35.205Z,28.90
2018-05-14T15:24:03.419Z,30.50
2018-05-14T15:26:30.854Z,30.50
2018-05-14T15:28:59.078Z,31.60
2018-05-14T15:31:26.505Z,31.50
2018-05-14T15:33:53.946Z,32.00
2018-05-14T15:36:21.376Z,32.20
2018-05-14T15:38:50.228Z,33.00
2018-05-14T15:41:17.685Z,33.00
2018-05-14T15:43:45.105Z,33.50
2018-05-14T15:46:12.555Z,33.90
2018-05-14T15:48:40.790Z,34.40
2018-05-14T15:51:08.234Z,34.40
2018-05-14T15:53:35.676Z,34.20
2018-05-14T15:56:03.108Z,34.00
2018-05-14T15:58:30.541Z,34.00
2018-05-14T16:00:58.756Z,34.00
2018-05-14T16:03:26.314Z,33.90
2018-05-14T16:05:53.875Z,34.40
2018-05-14T16:08:21.328Z,34.40
2018-05-14T16:10:48.752Z,34.40
2018-05-14T16:13:16.963Z,33.30
2018-05-14T16:15:44.408Z,33.20
2018-05-14T16:18:11.832Z,31.30
2018-05-14T16:20:40.151Z,32.30
2018-05-14T16:23:07.561Z,32.20
2018-05-14T16:25:35.768Z,32.30
2018-05-14T16:28:03.977Z,32.20
2018-05-14T16:30:31.420Z,32.10
2018-05-14T16:32:58.855Z,32.00
2018-05-14T16:35:27.055Z,32.10
2018-05-14T16:37:54.527Z,32.00
2018-05-14T16:40:21.979Z,32.40
2018-05-14T16:42:49.411Z,32.80
2018-05-14T16:45:17.610Z,32.50
2018-05-14T16:47:45.101Z,32.40
2018-05-14T16:50:12.601Z,32.60
2018-05-14T16:52:40.785Z,32.30
2018-05-14T16:55:08.357Z,32.20
2018-05-14T16:57:35.895Z,31.90
2018-05-14T17:00:03.373Z,31.90
2018-05-14T17:02:30.789Z,31.90
2018-05-14T17:07:33.115Z,31.40
2018-05-14T17:10:00.548Z,31.00
2018-05-14T17:12:27.990Z,30.90
2018-05-14T17:14:56.304Z,30.30
2018-05-14T17:17:23.770Z,30.20
2018-05-14T17:19:51.202Z,29.80
2018-05-14T17:22:18.635Z,29.60
2018-05-14T17:24:46.840Z,29.60
2018-05-14T17:27:14.290Z,29.60
2018-05-14T17:29:41.732Z,29.60
2018-05-14T17:32:09.184Z,29.60
2018-05-14T17:34:37.393Z,29.50
2018-05-14T17:37:04.841Z,29.50
2018-05-14T17:39:32.306Z,29.60
2018-05-14T17:41:59.739Z,28.90
2018-05-14T17:44:27.182Z,28.30
2018-05-14T17:46:55.447Z,27.00
2018-05-14T17:49:22.878Z,26.90
2018-05-14T17:51:50.325Z,26.50
2018-05-14T17:54:17.872Z,26.10
2018-05-14T17:56:45.325Z,25.80
2018-05-14T17:59:13.665Z,25.80
2018-05-14T18:01:41.886Z,25.70
2018-05-14T18:04:09.336Z,25.60
2018-05-14T18:06:36.788Z,25.40
2018-05-14T18:09:04.231Z,25.30
2018-05-14T18:11:31.752Z,25.00
2018-05-14T18:13:59.265Z,24.70
2018-05-14T18:16:26.822Z,24.40
2018-05-14T18:18:54.296Z,24.60
2018-05-14T18:21:27.579Z,24.10
2018-05-14T18:23:55.055Z,24.00
2018-05-14T18:26:25.455Z,23.80
2018-05-14T18:28:52.904Z,23.70
2018-05-14T18:31:26.041Z,23.60
2018-05-14T18:33:53.517Z,23.50
2018-05-14T18:36:21.093Z,23.50
2018-05-14T18:38:49.168Z,23.20
2018-05-14T18:41:16.668Z,23.20
2018-05-14T18:43:44.131Z,23.10
2018-05-14T18:46:11.576Z,22.90
2018-05-14T18:48:39.017Z,22.80
2018-05-14T18:51:06.518Z,22.70
2018-05-14T18:53:33.980Z,22.60
2018-05-14T18:56:01.432Z,22.50
2018-05-14T18:58:28.993Z,22.40
2018-05-14T19:00:57.211Z,22.10
2018-05-14T19:03:24.640Z,22.10
2018-05-14T19:05:52.857Z,21.90
2018-05-14T19:08:20.306Z,21.90
2018-05-14T19:10:53.444Z,21.80
2018-05-14T19:13:20.870Z,21.70
2018-05-14T19:15:54.029Z,21.60
2018-05-14T19:18:21.490Z,21.50
2018-05-14T19:20:48.988Z,21.40
2018-05-14T19:23:22.127Z,21.30
2018-05-14T19:25:50.366Z,21.20
2018-05-14T19:28:23.414Z,21.10
2018-05-14T19:30:50.856Z,20.80
2018-05-14T19:33:24.152Z,21.00
2018-05-14T19:35:58.131Z,20.90
2018-05-14T19:38:25.565Z,20.90
2018-05-14T19:40:53.077Z,20.70
2018-05-14T19:43:20.491Z,20.70
2018-05-14T19:45:47.917Z,20.60
2018-05-14T19:48:15.395Z,20.60
2018-05-14T19:50:43.006Z,20.60
2018-05-14T19:53:10.445Z,20.50
2018-05-14T19:55:37.922Z,20.40
2018-05-14T19:58:05.377Z,20.40
2018-05-14T20:00:32.847Z,20.30
2018-05-14T20:03:00.390Z,20.20
2018-05-14T20:05:27.812Z,20.10
2018-05-14T20:07:56.336Z,20.00
2018-05-14T20:10:23.808Z,19.90
2018-05-14T20:12:51.389Z,19.90
2018-05-14T20:15:18.824Z,19.80
2018-05-14T20:17:46.267Z,19.80
2018-05-14T20:20:13.739Z,19.80
2018-05-14T20:22:41.883Z,19.70
2018-05-14T20:25:09.577Z,19.60
2018-05-14T20:27:37.020Z,19.60
2018-05-14T20:30:04.496Z,19.60
2018-05-14T20:32:31.953Z,19.50
2018-05-14T20:34:59.393Z,19.50
2018-05-14T20:37:26.881Z,19.40
2018-05-14T20:39:54.269Z,19.30
2018-05-14T20:42:21.751Z,19.30
2018-05-14T20:44:49.204Z,19.30
2018-05-14T20:47:16.708Z,19.30
2018-05-14T20:49:44.147Z,19.20
2018-05-14T20:52:11.663Z,16.90
2018-05-14T20:54:39.036Z,19.10
2018-05-14T20:57:06.538Z,19.00
2018-05-14T20:59:33.976Z,19.00
2018-05-14T21:02:01.435Z,19.00
2018-05-14T21:04:28.859Z,19.00
2018-05-14T21:06:56.420Z,18.90
2018-05-14T21:09:23.898Z,18.90
2018-05-14T21:11:51.513Z,18.90
2018-05-14T21:14:19.025Z,18.80
2018-05-14T21:16:46.481Z,18.80
2018-05-14T21:19:13.919Z,18.80
2018-05-14T21:21:41.358Z,18.80
2018-05-14T21:24:08.802Z,18.80
2018-05-14T21:26:36.237Z,18.70
2018-05-14T21:29:04.496Z,18.60
2018-05-14T21:31:32.005Z,18.60
2018-05-14T21:33:59.420Z,18.60
2018-05-14T21:36:27.630Z,18.50
2018-05-14T21:38:55.070Z,18.50
2018-05-14T21:41:23.265Z,18.50
2018-05-14T21:43:50.699Z,18.40
2018-05-14T21:46:18.128Z,18.40
2018-05-14T21:48:46.383Z,18.40
2018-05-14T21:51:13.807Z,18.40
2018-05-14T21:53:41.262Z,18.40
2018-05-14T21:56:08.700Z,18.30
2018-05-14T21:58:36.196Z,18.30
2018-05-14T22:01:03.632Z,18.20
2018-05-14T22:03:31.081Z,18.20
2018-05-14T22:05:58.513Z,18.20
2018-05-14T22:08:26.724Z,18.10
2018-05-14T22:10:54.174Z,18.10
2018-05-14T22:13:21.639Z,18.10
2018-05-14T22:15:49.071Z,18.00
2018-05-14T22:18:16.658Z,18.00
2018-05-14T22:20:44.101Z,18.00
2018-05-14T22:23:11.641Z,18.00
2018-05-14T22:25:39.084Z,17.90
2018-05-14T22:28:07.316Z,17.80
2018-05-14T22:30:34.763Z,17.70
2018-05-14T22:33:02.219Z,17.70
2018-05-14T22:35:29.719Z,17.70
2018-05-14T22:37:57.109Z,17.70
2018-05-14T22:40:24.601Z,17.70
2018-05-14T22:42:52.097Z,17.70
2018-05-14T22:45:19.504Z,17.60
2018-05-14T22:47:47.044Z,17.60
2018-05-14T22:50:14.465Z,17.60
2018-05-14T22:52:42.681Z,17.50
2018-05-14T22:55:10.120Z,17.40
2018-05-14T22:57:37.557Z,17.50
2018-05-14T23:00:05.011Z,17.50
2018-05-14T23:02:33.237Z,17.40
2018-05-14T23:05:00.796Z,17.30
2018-05-14T23:07:28.256Z,17.40
2018-05-14T23:09:55.695Z,17.30
2018-05-14T23:12:23.256Z,17.20
2018-05-14T23:14:50.684Z,17.10
2018-05-14T23:17:18.185Z,17.10
2018-05-14T23:19:45.632Z,17.00
2018-05-14T23:22:16.040Z,17.00
2018-05-14T23:24:43.463Z,16.90
2018-05-14T23:27:11.673Z,16.80
2018-05-14T23:29:39.116Z,16.70
2018-05-14T23:32:06.604Z,16.70
2018-05-14T23:34:34.053Z,16.70
2018-05-14T23:37:01.503Z,16.60
2018-05-14T23:39:28.964Z,16.60
2018-05-14T23:41:56.404Z,16.50
2018-05-14T23:44:23.844Z,16.40
2018-05-14T23:46:51.280Z,16.30
2018-05-14T23:49:19.489Z,16.20
2018-05-14T23:51:46.925Z,16.20
2018-05-14T23:54:14.379Z,16.10
2018-05-14T23:56:42.596Z,15.90
2018-05-14T23:59:10.032Z,15.90
